sensor_id;sensor_type;location;lat;lon;timestamp;pressure;altitude;pressure_sealevel;temperature;humidity
71151;BME280;59071;42.138;24.768;2022-08-01T00:00:09;99318.00;;;25.97;43.31
71151;BME280;59071;42.138;24.768;2022-08-01T00:02:36;99303.47;;;26.10;43.06
71151;BME280;59071;42.138;24.768;2022-08-01T00:05:07;99300.88;;;26.05;43.19
71151;BME280;59071;42.138;24.768;2022-08-01T00:07:37;99287.59;;;26.12;43.05
71151;BME280;59071;42.138;24.768;2022-08-01T00:10:04;99307.63;;;26.25;42.84
71151;BME280;59071;42.138;24.768;2022-08-01T00:12:30;99296.09;;;26.28;42.32
71151;BME280;59071;42.138;24.768;2022-08-01T00:14:55;99298.78;;;26.11;42.44
71151;BME280;59071;42.138;24.768;2022-08-01T00:17:21;99295.13;;;26.33;42.31
71151;BME280;59071;42.138;24.768;2022-08-01T00:19:46;99287.09;;;26.19;42.38
71151;BME280;59071;42.138;24.768;2022-08-01T00:22:12;99300.59;;;26.42;42.07
71151;BME280;59071;42.138;24.768;2022-08-01T00:24:37;99292.53;;;26.19;42.42
71151;BME280;59071;42.138;24.768;2022-08-01T00:27:02;99290.00;;;26.31;41.78
71151;BME280;59071;42.138;24.768;2022-08-01T00:29:28;99291.75;;;26.19;42.18
71151;BME280;59071;42.138;24.768;2022-08-01T00:31:53;99286.31;;;26.27;41.90
71151;BME280;59071;42.138;24.768;2022-08-01T00:34:19;99293.38;;;26.37;41.56
71151;BME280;59071;42.138;24.768;2022-08-01T00:36:44;99297.84;;;26.33;41.59
71151;BME280;59071;42.138;24.768;2022-08-01T00:39:10;99295.13;;;26.33;41.46
71151;BME280;59071;42.138;24.768;2022-08-01T00:41:35;99298.63;;;26.07;41.99
71151;BME280;59071;42.138;24.768;2022-08-01T00:44:04;99296.59;;;26.22;41.85
71151;BME280;59071;42.138;24.768;2022-08-01T00:46:30;99300.09;;;26.22;41.91
71151;BME280;59071;42.138;24.768;2022-08-01T00:48:57;99303.59;;;26.14;41.70
71151;BME280;59071;42.138;24.768;2022-08-01T00:51:22;99297.78;;;25.98;41.97
71151;BME280;59071;42.138;24.768;2022-08-01T00:53:49;99311.63;;;26.10;41.79
71151;BME280;59071;42.138;24.768;2022-08-01T00:56:15;99308.13;;;26.19;41.35
71151;BME280;59071;42.138;24.768;2022-08-01T00:58:40;99305.06;;;26.20;41.67
71151;BME280;59071;42.138;24.768;2022-08-01T01:01:06;99305.06;;;26.20;41.51
71151;BME280;59071;42.138;24.768;2022-08-01T01:03:31;99299.75;;;26.15;41.22
71151;BME280;59071;42.138;24.768;2022-08-01T01:06:23;99293.97;;;25.99;41.72
71151;BME280;59071;42.138;24.768;2022-08-01T01:09:03;99300.88;;;25.74;42.41
71151;BME280;59071;42.138;24.768;2022-08-01T01:11:45;99299.66;;;25.89;41.93
71151;BME280;59071;42.138;24.768;2022-08-01T01:14:44;99303.34;;;25.84;42.06
71151;BME280;59071;42.138;24.768;2022-08-01T01:17:15;99307.66;;;25.77;41.99
71151;BME280;59071;42.138;24.768;2022-08-01T01:19:45;99316.25;;;25.70;41.85
71151;BME280;59071;42.138;24.768;2022-08-01T01:25:46;99301.25;;;25.41;42.60
71151;BME280;59071;42.138;24.768;2022-08-01T01:31:17;99308.19;;;25.56;42.25
71151;BME280;59071;42.138;24.768;2022-08-01T01:33:46;99304.94;;;25.45;42.26
71151;BME280;59071;42.138;24.768;2022-08-01T01:36:12;99305.28;;;25.44;42.74
71151;BME280;59071;42.138;24.768;2022-08-01T01:38:42;99313.28;;;25.49;42.68
71151;BME280;59071;42.138;24.768;2022-08-01T01:41:14;99304.16;;;25.45;42.51
71151;BME280;59071;42.138;24.768;2022-08-01T01:43:41;99312.56;;;25.57;42.46
71151;BME280;59071;42.138;24.768;2022-08-01T01:46:09;99314.91;;;25.50;42.79
71151;BME280;59071;42.138;24.768;2022-08-01T01:48:36;99309.91;;;25.43;42.73
71151;BME280;59071;42.138;24.768;2022-08-01T01:51:03;99315.84;;;25.45;42.83
71151;BME280;59071;42.138;24.768;2022-08-01T01:53:32;99304.94;;;25.45;42.50
71151;BME280;59071;42.138;24.768;2022-08-01T01:55:58;99301.22;;;25.32;42.98
71151;BME280;59071;42.138;24.768;2022-08-01T01:58:27;99297.47;;;25.28;42.99
71151;BME280;59071;42.138;24.768;2022-08-01T02:00:55;99301.66;;;25.26;43.19
71151;BME280;59071;42.138;24.768;2022-08-01T02:03:22;99310.44;;;25.23;43.30
71151;BME280;59071;42.138;24.768;2022-08-01T02:05:51;99313.25;;;25.17;43.29
71151;BME280;59071;42.138;24.768;2022-08-01T02:08:18;99311.47;;;25.13;43.43
71151;BME280;59071;42.138;24.768;2022-08-01T02:10:44;99311.84;;;24.97;43.80
71151;BME280;59071;42.138;24.768;2022-08-01T02:13:31;99305.66;;;25.06;43.44
71151;BME280;59071;42.138;24.768;2022-08-01T02:15:58;99301.56;;;25.17;43.15
71151;BME280;59071;42.138;24.768;2022-08-01T02:18:23;99306.00;;;25.13;43.41
71151;BME280;59071;42.138;24.768;2022-08-01T02:20:51;99311.03;;;25.20;42.98
71151;BME280;59071;42.138;24.768;2022-08-01T02:23:18;99304.50;;;24.98;43.20
71151;BME280;59071;42.138;24.768;2022-08-01T02:25:49;99309.31;;;25.01;43.21
71151;BME280;59071;42.138;24.768;2022-08-01T02:28:20;99313.19;;;25.09;42.95
71151;BME280;59071;42.138;24.768;2022-08-01T02:30:50;99306.50;;;25.15;42.92
71151;BME280;59071;42.138;24.768;2022-08-01T02:33:22;99299.75;;;25.04;43.05
71151;BME280;59071;42.138;24.768;2022-08-01T02:35:51;99309.56;;;25.13;42.95
71151;BME280;59071;42.138;24.768;2022-08-01T02:38:18;99311.63;;;25.16;42.62
71151;BME280;59071;42.138;24.768;2022-08-01T02:40:47;99311.03;;;24.97;43.17
71151;BME280;59071;42.138;24.768;2022-08-01T02:43:18;99301.44;;;25.00;43.12
71151;BME280;59071;42.138;24.768;2022-08-01T02:45:48;99298.88;;;24.94;43.10
71151;BME280;59071;42.138;24.768;2022-08-01T02:48:17;99295.78;;;24.87;43.12
71151;BME280;59071;42.138;24.768;2022-08-01T02:50:46;99294.03;;;24.91;43.00
71151;BME280;59071;42.138;24.768;2022-08-01T02:53:14;99293.78;;;25.02;42.76
71151;BME280;59071;42.138;24.768;2022-08-01T02:55:42;99296.44;;;24.93;42.84
71151;BME280;59071;42.138;24.768;2022-08-01T02:58:11;99297.34;;;25.11;42.37
71151;BME280;59071;42.138;24.768;2022-08-01T03:00:38;99299.78;;;24.90;42.52
71151;BME280;59071;42.138;24.768;2022-08-01T03:03:06;99297.22;;;24.85;42.61
71151;BME280;59071;42.138;24.768;2022-08-01T03:05:34;99290.06;;;24.97;42.15
71151;BME280;59071;42.138;24.768;2022-08-01T03:08:00;99300.22;;;24.83;42.54
71151;BME280;59071;42.138;24.768;2022-08-01T03:10:28;99292.38;;;24.82;42.42
71151;BME280;59071;42.138;24.768;2022-08-01T03:12:54;99295.28;;;24.49;42.81
71151;BME280;59071;42.138;24.768;2022-08-01T03:15:24;99289.13;;;24.57;42.67
71151;BME280;59071;42.138;24.768;2022-08-01T03:17:52;99294.16;;;24.64;42.65
71151;BME280;59071;42.138;24.768;2022-08-01T03:20:21;99286.50;;;24.66;42.34
71151;BME280;59071;42.138;24.768;2022-08-01T03:22:50;99283.59;;;24.62;42.33
71151;BME280;59071;42.138;24.768;2022-08-01T03:25:19;99287.72;;;24.59;42.47
71151;BME280;59071;42.138;24.768;2022-08-01T03:27:50;99276.84;;;24.46;42.31
71151;BME280;59071;42.138;24.768;2022-08-01T03:30:17;99288.53;;;24.60;42.10
71151;BME280;59071;42.138;24.768;2022-08-01T03:32:42;99287.22;;;24.57;42.15
71151;BME280;59071;42.138;24.768;2022-08-01T03:35:08;99289.06;;;24.71;41.52
71151;BME280;59071;42.138;24.768;2022-08-01T03:37:38;99284.63;;;24.75;41.67
71151;BME280;59071;42.138;24.768;2022-08-01T03:42:38;99284.09;;;24.64;41.61
71151;BME280;59071;42.138;24.768;2022-08-01T03:45:08;99281.91;;;24.38;42.19
71151;BME280;59071;42.138;24.768;2022-08-01T03:47:36;99284.22;;;24.45;41.77
71151;BME280;59071;42.138;24.768;2022-08-01T03:50:04;99287.72;;;24.59;41.43
71151;BME280;59071;42.138;24.768;2022-08-01T03:52:30;99289.75;;;24.76;41.01
71151;BME280;59071;42.138;24.768;2022-08-01T03:55:01;99282.84;;;24.93;40.86
71151;BME280;59071;42.138;24.768;2022-08-01T03:57:29;99287.72;;;25.05;40.46
71151;BME280;59071;42.138;24.768;2022-08-01T03:59:58;99290.50;;;25.36;39.84
71151;BME280;59071;42.138;24.768;2022-08-01T04:02:24;99288.53;;;25.68;39.40
71151;BME280;59071;42.138;24.768;2022-08-01T04:04:50;99293.16;;;26.07;38.29
71151;BME280;59071;42.138;24.768;2022-08-01T04:09:48;99295.94;;;26.25;37.87
71151;BME280;59071;42.138;24.768;2022-08-01T04:12:14;99289.19;;;26.31;37.52
71151;BME280;59071;42.138;24.768;2022-08-01T04:14:39;99302.25;;;26.60;37.24
71151;BME280;59071;42.138;24.768;2022-08-01T04:17:04;99302.41;;;26.81;36.73
71151;BME280;59071;42.138;24.768;2022-08-01T04:19:30;99304.00;;;26.74;37.04
71151;BME280;59071;42.138;24.768;2022-08-01T04:21:55;99298.38;;;26.96;36.70
71151;BME280;59071;42.138;24.768;2022-08-01T04:24:22;99294.81;;;27.13;36.51
71151;BME280;59071;42.138;24.768;2022-08-01T04:26:50;99301.22;;;27.35;36.01
71151;BME280;59071;42.138;24.768;2022-08-01T04:29:17;99301.13;;;27.99;34.74
71151;BME280;59071;42.138;24.768;2022-08-01T04:31:46;99299.66;;;27.63;35.66
71151;BME280;59071;42.138;24.768;2022-08-01T04:34:16;99306.22;;;27.71;35.27
71151;BME280;59071;42.138;24.768;2022-08-01T04:36:43;99306.44;;;27.96;35.00
71151;BME280;59071;42.138;24.768;2022-08-01T04:39:11;99305.84;;;28.41;34.27
71151;BME280;59071;42.138;24.768;2022-08-01T04:41:38;99308.56;;;28.83;33.50
71151;BME280;59071;42.138;24.768;2022-08-01T04:44:05;99310.47;;;29.03;32.96
71151;BME280;59071;42.138;24.768;2022-08-01T04:46:33;99312.53;;;28.52;33.80
71151;BME280;59071;42.138;24.768;2022-08-01T04:48:59;99311.50;;;28.78;33.25
71151;BME280;59071;42.138;24.768;2022-08-01T04:51:25;99305.66;;;29.00;33.01
71151;BME280;59071;42.138;24.768;2022-08-01T04:53:51;99303.94;;;29.29;32.06
71151;BME280;59071;42.138;24.768;2022-08-01T04:56:18;99308.13;;;29.72;31.70
71151;BME280;59071;42.138;24.768;2022-08-01T04:58:44;99309.13;;;30.42;30.43
71151;BME280;59071;42.138;24.768;2022-08-01T05:01:10;99307.53;;;29.54;31.18
71151;BME280;59071;42.138;24.768;2022-08-01T05:03:36;99307.31;;;29.59;30.95
71151;BME280;59071;42.138;24.768;2022-08-01T05:06:02;99307.81;;;29.86;30.79
71151;BME280;59071;42.138;24.768;2022-08-01T05:08:27;99312.34;;;29.94;30.42
71151;BME280;59071;42.138;24.768;2022-08-01T05:10:53;99312.78;;;29.72;30.88
71151;BME280;59071;42.138;24.768;2022-08-01T05:13:19;99316.00;;;30.35;30.55
71151;BME280;59071;42.138;24.768;2022-08-01T05:15:45;99311.47;;;29.78;30.92
71151;BME280;59071;42.138;24.768;2022-08-01T05:18:10;99303.91;;;29.87;30.64
71151;BME280;59071;42.138;24.768;2022-08-01T05:20:36;99315.16;;;30.47;30.27
71151;BME280;59071;42.138;24.768;2022-08-01T05:23:03;99308.00;;;30.71;29.70
71151;BME280;59071;42.138;24.768;2022-08-01T05:25:28;99306.63;;;30.12;30.59
71151;BME280;59071;42.138;24.768;2022-08-01T05:27:54;99308.22;;;30.37;30.35
71151;BME280;59071;42.138;24.768;2022-08-01T05:30:19;99303.16;;;30.27;30.39
71151;BME280;59071;42.138;24.768;2022-08-01T05:32:45;99302.81;;;30.94;29.87
71151;BME280;59071;42.138;24.768;2022-08-01T05:35:10;99306.59;;;31.65;28.42
71151;BME280;59071;42.138;24.768;2022-08-01T05:37:36;99303.84;;;31.81;27.86
71151;BME280;59071;42.138;24.768;2022-08-01T05:40:01;99313.81;;;31.10;28.25
71151;BME280;59071;42.138;24.768;2022-08-01T05:42:27;99307.88;;;30.39;29.34
71151;BME280;59071;42.138;24.768;2022-08-01T05:44:52;99298.50;;;30.68;28.68
71151;BME280;59071;42.138;24.768;2022-08-01T05:47:18;99303.81;;;31.17;27.68
71151;BME280;59071;42.138;24.768;2022-08-01T05:49:45;99307.22;;;31.59;27.47
71151;BME280;59071;42.138;24.768;2022-08-01T05:52:10;99306.50;;;32.29;26.30
71151;BME280;59071;42.138;24.768;2022-08-01T05:54:36;99304.66;;;32.33;26.63
71151;BME280;59071;42.138;24.768;2022-08-01T05:57:01;99301.91;;;32.33;26.34
71151;BME280;59071;42.138;24.768;2022-08-01T05:59:28;99298.91;;;32.22;26.46
71151;BME280;59071;42.138;24.768;2022-08-01T06:01:53;99304.66;;;31.82;26.26
71151;BME280;59071;42.138;24.768;2022-08-01T06:04:19;99303.22;;;32.39;25.17
71151;BME280;59071;42.138;24.768;2022-08-01T06:06:44;99307.19;;;31.90;25.51
71151;BME280;59071;42.138;24.768;2022-08-01T06:09:10;99301.81;;;32.29;25.21
71151;BME280;59071;42.138;24.768;2022-08-01T06:11:35;99299.44;;;33.06;24.18
71151;BME280;59071;42.138;24.768;2022-08-01T06:14:01;99298.84;;;33.62;23.37
71151;BME280;59071;42.138;24.768;2022-08-01T06:16:26;99307.91;;;33.86;22.57
71151;BME280;59071;42.138;24.768;2022-08-01T06:18:52;99297.16;;;33.31;23.18
71151;BME280;59071;42.138;24.768;2022-08-01T06:21:17;99294.72;;;33.06;23.15
71151;BME280;59071;42.138;24.768;2022-08-01T06:23:42;99283.56;;;32.99;23.22
71151;BME280;59071;42.138;24.768;2022-08-01T06:26:08;99286.09;;;33.08;23.16
71151;BME280;59071;42.138;24.768;2022-08-01T06:28:34;99287.28;;;33.53;22.86
71151;BME280;59071;42.138;24.768;2022-08-01T06:30:59;99286.03;;;33.50;22.72
71151;BME280;59071;42.138;24.768;2022-08-01T06:33:26;99282.59;;;34.34;21.78
71151;BME280;59071;42.138;24.768;2022-08-01T06:35:51;99285.16;;;33.93;21.79
71151;BME280;59071;42.138;24.768;2022-08-01T06:38:17;99271.41;;;33.69;22.21
71151;BME280;59071;42.138;24.768;2022-08-01T06:40:42;99280.72;;;33.61;22.61
71151;BME280;59071;42.138;24.768;2022-08-01T06:43:07;99284.53;;;33.76;22.27
71151;BME280;59071;42.138;24.768;2022-08-01T06:45:33;99269.88;;;33.72;22.32
71151;BME280;59071;42.138;24.768;2022-08-01T06:47:58;99281.53;;;34.15;21.91
71151;BME280;59071;42.138;24.768;2022-08-01T06:50:24;99277.75;;;33.97;22.22
71151;BME280;59071;42.138;24.768;2022-08-01T06:52:49;99279.19;;;34.47;22.14
71151;BME280;59071;42.138;24.768;2022-08-01T06:55:15;99278.34;;;34.13;22.04
71151;BME280;59071;42.138;24.768;2022-08-01T06:57:48;99266.56;;;33.17;22.41
71151;BME280;59071;42.138;24.768;2022-08-01T07:00:14;99253.28;;;32.80;22.56
71151;BME280;59071;42.138;24.768;2022-08-01T07:02:41;99259.44;;;31.99;23.53
71151;BME280;59071;42.138;24.768;2022-08-01T07:05:07;99265.47;;;32.40;23.71
71151;BME280;59071;42.138;24.768;2022-08-01T07:07:32;99254.88;;;32.22;23.72
71151;BME280;59071;42.138;24.768;2022-08-01T07:09:58;99263.44;;;32.76;22.88
71151;BME280;59071;42.138;24.768;2022-08-01T07:12:23;99260.38;;;32.22;23.56
71151;BME280;59071;42.138;24.768;2022-08-01T07:14:49;99257.84;;;32.52;23.39
71151;BME280;59071;42.138;24.768;2022-08-01T07:17:14;99263.63;;;33.29;22.80
71151;BME280;59071;42.138;24.768;2022-08-01T07:19:40;99261.34;;;34.11;21.78
71151;BME280;59071;42.138;24.768;2022-08-01T07:22:05;99265.59;;;33.28;22.54
71151;BME280;59071;42.138;24.768;2022-08-01T07:24:30;99261.91;;;32.98;22.84
71151;BME280;59071;42.138;24.768;2022-08-01T07:26:57;99250.28;;;33.31;22.96
71151;BME280;59071;42.138;24.768;2022-08-01T07:29:26;99242.19;;;33.42;22.31
71151;BME280;59071;42.138;24.768;2022-08-01T07:31:56;99254.66;;;33.82;22.33
71151;BME280;59071;42.138;24.768;2022-08-01T07:34:22;99248.59;;;33.73;22.01
71151;BME280;59071;42.138;24.768;2022-08-01T07:36:48;99229.09;;;33.12;22.63
71151;BME280;59071;42.138;24.768;2022-08-01T07:39:14;99236.00;;;32.60;22.98
71151;BME280;59071;42.138;24.768;2022-08-01T07:41:39;99238.50;;;32.68;23.14
71151;BME280;59071;42.138;24.768;2022-08-01T07:44:05;99252.03;;;32.97;23.11
71151;BME280;59071;42.138;24.768;2022-08-01T07:46:30;99230.31;;;33.15;22.79
71151;BME280;59071;42.138;24.768;2022-08-01T07:48:56;99232.56;;;32.66;22.87
71151;BME280;59071;42.138;24.768;2022-08-01T07:51:22;99224.47;;;32.73;22.93
71151;BME280;59071;42.138;24.768;2022-08-01T07:53:47;99239.00;;;33.40;22.81
71151;BME280;59071;42.138;24.768;2022-08-01T07:56:13;99233.72;;;33.08;22.63
71151;BME280;59071;42.138;24.768;2022-08-01T07:58:39;99235.06;;;33.64;22.22
71151;BME280;59071;42.138;24.768;2022-08-01T08:01:04;99228.59;;;34.09;22.17
71151;BME280;59071;42.138;24.768;2022-08-01T08:03:30;99214.94;;;33.14;22.67
71151;BME280;59071;42.138;24.768;2022-08-01T08:05:55;99215.94;;;33.52;22.46
71151;BME280;59071;42.138;24.768;2022-08-01T08:08:21;99222.16;;;33.22;22.43
71151;BME280;59071;42.138;24.768;2022-08-01T08:10:47;99209.44;;;33.63;22.23
71151;BME280;59071;42.138;24.768;2022-08-01T08:13:12;99202.47;;;33.46;22.09
71151;BME280;59071;42.138;24.768;2022-08-01T08:15:37;99212.59;;;32.92;22.95
71151;BME280;59071;42.138;24.768;2022-08-01T08:18:04;99195.38;;;32.99;22.54
71151;BME280;59071;42.138;24.768;2022-08-01T08:20:29;99205.41;;;32.65;22.52
71151;BME280;59071;42.138;24.768;2022-08-01T08:22:56;99209.66;;;33.05;22.49
71151;BME280;59071;42.138;24.768;2022-08-01T08:25:24;99202.28;;;33.32;22.07
71151;BME280;59071;42.138;24.768;2022-08-01T08:27:50;99210.13;;;33.57;22.33
71151;BME280;59071;42.138;24.768;2022-08-01T08:30:16;99198.06;;;32.96;22.55
71151;BME280;59071;42.138;24.768;2022-08-01T08:32:42;99206.50;;;32.41;23.06
71151;BME280;59071;42.138;24.768;2022-08-01T08:35:08;99212.09;;;32.64;23.14
71151;BME280;59071;42.138;24.768;2022-08-01T08:37:35;99190.94;;;33.14;22.44
71151;BME280;59071;42.138;24.768;2022-08-01T08:40:01;99197.72;;;33.20;22.80
71151;BME280;59071;42.138;24.768;2022-08-01T08:42:27;99178.56;;;33.54;22.00
71151;BME280;59071;42.138;24.768;2022-08-01T08:44:53;99195.91;;;32.62;23.17
71151;BME280;59071;42.138;24.768;2022-08-01T08:47:22;99193.66;;;32.68;22.96
71151;BME280;59071;42.138;24.768;2022-08-01T08:49:51;99197.13;;;33.30;23.04
71151;BME280;59071;42.138;24.768;2022-08-01T08:52:19;99199.47;;;33.09;22.89
71151;BME280;59071;42.138;24.768;2022-08-01T08:54:46;99196.53;;;33.44;22.22
71151;BME280;59071;42.138;24.768;2022-08-01T08:57:13;99190.97;;;32.95;23.10
71151;BME280;59071;42.138;24.768;2022-08-01T08:59:40;99191.47;;;32.77;23.18
71151;BME280;59071;42.138;24.768;2022-08-01T09:02:07;99194.94;;;32.74;23.74
71151;BME280;59071;42.138;24.768;2022-08-01T09:04:35;99179.75;;;33.07;23.30
71151;BME280;59071;42.138;24.768;2022-08-01T09:07:03;99187.72;;;32.89;23.35
71151;BME280;59071;42.138;24.768;2022-08-01T09:09:28;99191.53;;;33.04;23.16
71151;BME280;59071;42.138;24.768;2022-08-01T09:11:54;99190.13;;;32.90;23.33
71151;BME280;59071;42.138;24.768;2022-08-01T09:14:20;99182.31;;;33.16;23.58
71151;BME280;59071;42.138;24.768;2022-08-01T09:17:06;99189.94;;;32.80;23.87
71151;BME280;59071;42.138;24.768;2022-08-01T09:19:37;99179.13;;;32.90;23.46
71151;BME280;59071;42.138;24.768;2022-08-01T09:22:05;99175.97;;;33.38;23.08
71151;BME280;59071;42.138;24.768;2022-08-01T09:24:31;99179.28;;;33.74;22.53
71151;BME280;59071;42.138;24.768;2022-08-01T09:26:58;99175.31;;;33.22;23.25
71151;BME280;59071;42.138;24.768;2022-08-01T09:29:26;99179.34;;;32.82;23.82
71151;BME280;59071;42.138;24.768;2022-08-01T09:31:53;99176.78;;;32.69;24.08
71151;BME280;59071;42.138;24.768;2022-08-01T09:34:29;99179.13;;;32.90;23.76
71151;BME280;59071;42.138;24.768;2022-08-01T09:37:02;99167.81;;;32.99;23.65
71151;BME280;59071;42.138;24.768;2022-08-01T09:39:29;99158.66;;;32.68;23.92
71151;BME280;59071;42.138;24.768;2022-08-01T09:41:56;99163.44;;;33.18;23.62
71151;BME280;59071;42.138;24.768;2022-08-01T09:44:38;99155.66;;;33.00;23.83
71151;BME280;59071;42.138;24.768;2022-08-01T09:47:04;99166.19;;;32.71;24.15
71151;BME280;59071;42.138;24.768;2022-08-01T09:49:31;99164.78;;;32.39;25.03
71151;BME280;59071;42.138;24.768;2022-08-01T09:51:59;99151.22;;;32.96;23.91
71151;BME280;59071;42.138;24.768;2022-08-01T09:54:32;99158.16;;;33.32;23.46
71151;BME280;59071;42.138;24.768;2022-08-01T09:59:37;99151.56;;;33.40;23.82
71151;BME280;59071;42.138;24.768;2022-08-01T10:02:06;99155.81;;;33.34;23.68
71151;BME280;59071;42.138;24.768;2022-08-01T10:04:33;99157.22;;;33.01;23.84
71151;BME280;59071;42.138;24.768;2022-08-01T10:07:07;99128.22;;;32.61;24.36
71151;BME280;59071;42.138;24.768;2022-08-01T10:09:35;99147.06;;;32.82;24.73
71151;BME280;59071;42.138;24.768;2022-08-01T10:12:01;99149.47;;;32.84;24.29
71151;BME280;59071;42.138;24.768;2022-08-01T10:14:27;99137.59;;;32.80;24.51
71151;BME280;59071;42.138;24.768;2022-08-01T10:16:56;99130.97;;;33.07;23.84
71151;BME280;59071;42.138;24.768;2022-08-01T10:19:23;99135.19;;;32.78;24.53
71151;BME280;59071;42.138;24.768;2022-08-01T10:21:50;99151.19;;;32.92;24.28
71151;BME280;59071;42.138;24.768;2022-08-01T10:24:19;99136.44;;;32.81;24.12
71151;BME280;59071;42.138;24.768;2022-08-01T10:26:51;99141.81;;;33.20;23.89
71151;BME280;59071;42.138;24.768;2022-08-01T10:29:19;99143.72;;;33.42;24.01
71151;BME280;59071;42.138;24.768;2022-08-01T10:31:46;99133.25;;;32.79;24.63
71151;BME280;59071;42.138;24.768;2022-08-01T10:34:15;99125.84;;;32.83;24.28
71151;BME280;59071;42.138;24.768;2022-08-01T10:36:47;99139.78;;;32.70;24.61
71151;BME280;59071;42.138;24.768;2022-08-01T10:39:13;99129.16;;;32.92;24.29
71151;BME280;59071;42.138;24.768;2022-08-01T10:41:39;99144.44;;;32.89;24.62
71151;BME280;59071;42.138;24.768;2022-08-01T10:44:09;99128.72;;;33.66;23.58
71151;BME280;59071;42.138;24.768;2022-08-01T10:46:39;99143.00;;;33.49;23.79
71151;BME280;59071;42.138;24.768;2022-08-01T10:49:11;99140.84;;;32.85;24.05
71151;BME280;59071;42.138;24.768;2022-08-01T10:51:39;99144.63;;;33.00;24.46
71151;BME280;59071;42.138;24.768;2022-08-01T10:54:09;99136.25;;;33.43;24.27
71151;BME280;59071;42.138;24.768;2022-08-01T10:56:46;99142.53;;;33.66;23.77
71151;BME280;59071;42.138;24.768;2022-08-01T10:59:21;99135.28;;;32.82;24.02
71151;BME280;59071;42.138;24.768;2022-08-01T11:02:04;99133.78;;;33.34;23.58
71151;BME280;59071;42.138;24.768;2022-08-01T11:04:44;99143.66;;;33.12;24.21
71151;BME280;59071;42.138;24.768;2022-08-01T11:07:21;99139.53;;;33.79;24.08
71151;BME280;59071;42.138;24.768;2022-08-01T11:10:01;99130.16;;;34.17;23.34
71151;BME280;59071;42.138;24.768;2022-08-01T11:12:46;99126.81;;;34.76;22.74
71151;BME280;59071;42.138;24.768;2022-08-01T11:17:42;99120.31;;;34.57;22.87
71151;BME280;59071;42.138;24.768;2022-08-01T11:20:18;99125.00;;;34.53;23.06
71151;BME280;59071;42.138;24.768;2022-08-01T11:38:42;99130.50;;;35.42;21.97
71151;BME280;59071;42.138;24.768;2022-08-01T11:41:15;99114.69;;;35.43;22.16
71151;BME280;59071;42.138;24.768;2022-08-01T11:44:06;99109.22;;;34.50;22.81
71151;BME280;59071;42.138;24.768;2022-08-01T11:54:29;99093.81;;;34.97;22.13
71151;BME280;59071;42.138;24.768;2022-08-01T11:57:00;99117.75;;;35.27;21.79
71151;BME280;59071;42.138;24.768;2022-08-01T11:59:26;99102.59;;;35.10;21.54
71151;BME280;59071;42.138;24.768;2022-08-01T12:01:52;99090.13;;;35.31;21.75
71151;BME280;59071;42.138;24.768;2022-08-01T12:04:18;99102.44;;;35.40;21.43
71151;BME280;59071;42.138;24.768;2022-08-01T12:06:43;99091.25;;;36.03;20.76
71151;BME280;59071;42.138;24.768;2022-08-01T12:09:22;99103.09;;;36.00;21.08
71151;BME280;59071;42.138;24.768;2022-08-01T12:11:48;99086.72;;;35.55;21.69
71151;BME280;59071;42.138;24.768;2022-08-01T12:14:20;99085.09;;;35.54;21.70
71151;BME280;59071;42.138;24.768;2022-08-01T12:16:53;99083.13;;;35.48;21.56
71151;BME280;59071;42.138;24.768;2022-08-01T12:19:20;99077.34;;;35.74;21.12
71151;BME280;59071;42.138;24.768;2022-08-01T12:22:04;99088.25;;;35.53;21.37
71151;BME280;59071;42.138;24.768;2022-08-01T12:24:30;99094.84;;;36.11;20.78
71151;BME280;59071;42.138;24.768;2022-08-01T12:26:55;99092.91;;;35.34;20.88
71151;BME280;59071;42.138;24.768;2022-08-01T12:29:42;99091.78;;;35.42;21.54
71151;BME280;59071;42.138;24.768;2022-08-01T12:34:46;99071.41;;;35.83;21.28
71151;BME280;59071;42.138;24.768;2022-08-01T12:37:12;99085.16;;;35.61;20.83
71151;BME280;59071;42.138;24.768;2022-08-01T12:39:38;99071.41;;;35.79;20.83
71151;BME280;59071;42.138;24.768;2022-08-01T12:42:07;99069.34;;;35.62;21.33
71151;BME280;59071;42.138;24.768;2022-08-01T12:44:33;99069.81;;;35.71;21.12
71151;BME280;59071;42.138;24.768;2022-08-01T12:47:01;99078.59;;;35.95;20.96
71151;BME280;59071;42.138;24.768;2022-08-01T12:49:27;99066.41;;;36.28;20.83
71151;BME280;59071;42.138;24.768;2022-08-01T12:51:54;99067.63;;;36.27;20.49
71151;BME280;59071;42.138;24.768;2022-08-01T12:54:20;99067.25;;;35.41;21.22
71151;BME280;59071;42.138;24.768;2022-08-01T12:56:45;99070.84;;;35.49;20.95
71151;BME280;59071;42.138;24.768;2022-08-01T12:59:21;99067.63;;;35.32;21.21
71151;BME280;59071;42.138;24.768;2022-08-01T13:01:47;99052.47;;;35.12;21.95
71151;BME280;59071;42.138;24.768;2022-08-01T13:04:13;99059.25;;;35.21;21.99
71151;BME280;59071;42.138;24.768;2022-08-01T13:06:38;99057.41;;;34.40;21.95
71151;BME280;59071;42.138;24.768;2022-08-01T13:09:08;99060.97;;;35.44;21.40
71151;BME280;59071;42.138;24.768;2022-08-01T13:11:37;99060.06;;;36.17;20.99
71151;BME280;59071;42.138;24.768;2022-08-01T13:14:02;99057.66;;;36.12;20.69
71151;BME280;59071;42.138;24.768;2022-08-01T13:16:28;99055.00;;;35.38;21.78
71151;BME280;59071;42.138;24.768;2022-08-01T13:18:55;99056.41;;;35.14;21.03
71151;BME280;59071;42.138;24.768;2022-08-01T13:21:26;99052.63;;;35.37;21.42
71151;BME280;59071;42.138;24.768;2022-08-01T13:24:12;99050.75;;;35.55;21.43
71151;BME280;59071;42.138;24.768;2022-08-01T13:29:08;99059.50;;;35.72;21.25
71151;BME280;59071;42.138;24.768;2022-08-01T13:31:38;99051.53;;;35.56;21.16
71151;BME280;59071;42.138;24.768;2022-08-01T13:34:04;99050.59;;;35.23;21.57
71151;BME280;59071;42.138;24.768;2022-08-01T13:36:29;99045.06;;;35.23;21.34
71151;BME280;59071;42.138;24.768;2022-08-01T13:38:56;99062.13;;;35.36;21.40